Time;durP1;ratioP1;P1;durP2;ratioP2;P2;SDS_P1;SDS_P2;PMS_P1;PMS_P2;Temp;Humidity;BMP_temperature;BMP_pressure;BME280_temperature;BME280_humidity;BME280_pressure;Samples;Min_cycle;Max_cycle;Signal;HPM_P1;HPM_P2
2022/11/01 00:00:20;;;;;;;4.95;3.55;;;;;;;;;;5020958;28;20041;-70
2022/11/01 00:02:46;;;;;;;4.63;3.63;;;;;;;;;;5022397;28;20466;-70
2022/11/01 00:05:12;;;;;;;4.43;3.40;;;;;;;;;;5018050;28;20413;-73
2022/11/01 00:07:38;;;;;;;6.15;3.80;;;;;;;;;;5023518;28;20036;-73
2022/11/01 00:10:05;;;;;;;6.65;3.55;;;;;;;;;;5017961;28;20031;-70
2022/11/01 00:12:31;;;;;;;7.88;3.90;;;;;;;;;;5022913;28;20076;-70
2022/11/01 00:14:57;;;;;;;4.32;3.53;;;;;;;;;;5024427;28;20378;-69
2022/11/01 00:17:23;;;;;;;4.70;3.38;;;;;;;;;;5023402;28;20026;-70
2022/11/01 00:19:50;;;;;;;6.90;3.63;;;;;;;;;;5024614;28;20105;-70
2022/11/01 00:22:16;;;;;;;6.80;4.22;;;;;;;;;;5019472;28;20083;-70
2022/11/01 00:24:42;;;;;;;7.15;4.00;;;;;;;;;;5023919;28;20037;-70
2022/11/01 00:27:08;;;;;;;4.70;3.60;;;;;;;;;;5018905;28;20045;-70
2022/11/01 00:29:34;;;;;;;4.47;3.45;;;;;;;;;;5022364;28;20029;-69
2022/11/01 00:32:00;;;;;;;5.82;3.50;;;;;;;;;;5023369;28;20508;-70
2022/11/01 00:34:26;;;;;;;6.15;3.40;;;;;;;;;;5021348;28;20042;-70
2022/11/01 00:36:53;;;;;;;4.90;3.10;;;;;;;;;;5026828;28;20458;-70
2022/11/01 00:39:19;;;;;;;5.35;3.17;;;;;;;;;;5025551;28;20478;-70
2022/11/01 00:41:45;;;;;;;5.25;3.60;;;;;;;;;;5022577;28;20078;-69
2022/11/01 00:44:11;;;;;;;3.88;3.40;;;;;;;;;;5017764;28;20033;-70
2022/11/01 00:46:37;;;;;;;4.32;3.58;;;;;;;;;;5021172;28;20029;-70
2022/11/01 00:49:03;;;;;;;4.40;3.35;;;;;;;;;;5019870;28;20025;-70
2022/11/01 00:51:30;;;;;;;4.60;3.67;;;;;;;;;;5016156;28;20501;-70
2022/11/01 00:53:56;;;;;;;5.00;3.20;;;;;;;;;;5015791;28;20052;-69
2022/11/01 00:56:22;;;;;;;5.22;3.15;;;;;;;;;;5018316;28;20041;-69
2022/11/01 00:58:48;;;;;;;7.95;3.63;;;;;;;;;;5019905;28;20026;-70
2022/11/01 01:01:15;;;;;;;4.65;3.00;;;;;;;;;;5018594;28;20025;-70
2022/11/01 01:03:41;;;;;;;7.20;3.60;;;;;;;;;;5015277;28;20132;-70
2022/11/01 01:06:07;;;;;;;4.55;3.03;;;;;;;;;;5012551;28;20080;-70
2022/11/01 01:08:33;;;;;;;4.82;3.13;;;;;;;;;;5022905;28;20033;-70
2022/11/01 01:10:59;;;;;;;4.05;3.33;;;;;;;;;;5020702;28;20060;-70
2022/11/01 01:13:25;;;;;;;4.90;2.92;;;;;;;;;;5042519;28;20441;-70
2022/11/01 01:15:52;;;;;;;5.60;3.10;;;;;;;;;;5025936;28;20048;-71
2022/11/01 01:18:18;;;;;;;6.82;3.17;;;;;;;;;;5019964;28;20586;-72
2022/11/01 01:20:44;;;;;;;5.13;2.50;;;;;;;;;;5018081;28;20063;-70
2022/11/01 01:23:10;;;;;;;4.63;2.55;;;;;;;;;;5017995;28;20040;-70
2022/11/01 01:25:39;;;;;;;4.43;3.05;;;;;;;;;;5019217;28;20033;-70
2022/11/01 01:28:05;;;;;;;5.95;2.90;;;;;;;;;;5027532;28;20021;-70
2022/11/01 01:30:31;;;;;;;4.55;3.03;;;;;;;;;;5018395;28;20040;-70
2022/11/01 01:32:57;;;;;;;4.30;3.20;;;;;;;;;;5016644;28;20523;-70
2022/11/01 01:35:23;;;;;;;5.47;3.30;;;;;;;;;;5017644;28;20026;-70
2022/11/01 01:37:49;;;;;;;6.13;3.67;;;;;;;;;;5018439;28;20038;-73
2022/11/01 01:40:16;;;;;;;5.35;3.30;;;;;;;;;;5012347;28;20048;-70
2022/11/01 01:42:42;;;;;;;5.65;3.30;;;;;;;;;;5005795;28;20497;-70
2022/11/01 01:45:28;;;;;;;3.80;3.10;;;;;;;;;;5017666;28;20383;-72
2022/11/01 01:47:55;;;;;;;5.97;3.17;;;;;;;;;;5010406;28;20025;-70
2022/11/01 01:50:26;;;;;;;7.20;3.10;;;;;;;;;;5017545;28;20030;-70
2022/11/01 01:52:52;;;;;;;2.97;2.53;;;;;;;;;;5007591;28;20129;-70
2022/11/01 01:55:20;;;;;;;3.85;3.10;;;;;;;;;;5011590;28;20025;-70
2022/11/01 01:57:47;;;;;;;8.15;3.17;;;;;;;;;;5016009;28;20021;-70
2022/11/01 02:00:13;;;;;;;6.38;2.85;;;;;;;;;;5016351;28;20025;-71
2022/11/01 02:02:41;;;;;;;5.15;2.83;;;;;;;;;;5015514;28;20672;-70
2022/11/01 02:05:11;;;;;;;3.45;2.90;;;;;;;;;;5016228;28;20029;-70
2022/11/01 02:07:37;;;;;;;6.82;2.95;;;;;;;;;;5015264;28;20030;-70
2022/11/01 02:10:03;;;;;;;4.20;3.03;;;;;;;;;;5011765;28;20116;-70
2022/11/01 02:12:33;;;;;;;4.93;3.25;;;;;;;;;;5021883;28;20271;-70
2022/11/01 02:14:59;;;;;;;4.95;3.22;;;;;;;;;;5019702;28;20033;-69
2022/11/01 02:17:58;;;;;;;5.38;3.33;;;;;;;;;;5013021;28;20464;-69
2022/11/01 02:20:42;;;;;;;8.65;3.78;;;;;;;;;;5011876;28;20099;-68
2022/11/01 02:23:09;;;;;;;4.35;2.88;;;;;;;;;;5013392;28;20057;-69
2022/11/01 02:25:47;;;;;;;4.38;2.88;;;;;;;;;;5012911;28;20038;-69
2022/11/01 02:28:21;;;;;;;3.58;2.50;;;;;;;;;;5017688;28;20130;-69
2022/11/01 02:31:05;;;;;;;3.70;2.80;;;;;;;;;;5020248;28;20498;-69
2022/11/01 02:33:39;;;;;;;2.83;2.47;;;;;;;;;;5013294;28;20024;-68
2022/11/01 02:36:08;;;;;;;3.03;2.47;;;;;;;;;;5020934;28;20030;-69
2022/11/01 02:38:40;;;;;;;4.70;2.55;;;;;;;;;;5023428;28;20029;-69
2022/11/01 02:41:16;;;;;;;4.25;2.60;;;;;;;;;;5026474;28;20559;-69
2022/11/01 02:43:45;;;;;;;3.28;2.80;;;;;;;;;;5017906;28;20127;-69
2022/11/01 02:48:58;;;;;;;5.07;3.10;;;;;;;;;;5020599;28;20095;-71
2022/11/01 02:51:25;;;;;;;4.40;2.83;;;;;;;;;;5019165;28;20520;-73
2022/11/01 02:53:51;;;;;;;4.95;3.22;;;;;;;;;;5020205;28;20029;-70
2022/11/01 02:56:18;;;;;;;5.03;2.95;;;;;;;;;;5021046;28;20018;-70
2022/11/01 02:58:48;;;;;;;5.22;3.10;;;;;;;;;;5023508;28;20044;-70
2022/11/01 03:01:19;;;;;;;4.95;3.20;;;;;;;;;;5018072;28;20021;-70
2022/11/01 03:03:46;;;;;;;4.20;2.90;;;;;;;;;;5023576;28;20025;-71
2022/11/01 03:06:15;;;;;;;4.15;3.30;;;;;;;;;;5019387;28;20028;-70
2022/11/01 03:08:41;;;;;;;5.07;3.03;;;;;;;;;;5021172;28;20030;-71
2022/11/01 03:11:13;;;;;;;7.22;3.17;;;;;;;;;;5024412;28;20084;-71
2022/11/01 03:13:39;;;;;;;;;;;;;;;;;;5018429;28;20033;-70
2022/11/01 03:16:09;;;;;;;6.10;3.10;;;;;;;;;;5011610;28;20018;-70
2022/11/01 03:18:36;;;;;;;5.57;3.42;;;;;;;;;;5015076;28;20029;-70
2022/11/01 03:21:14;;;;;;;6.10;3.28;;;;;;;;;;5045205;28;21139;-70
2022/11/01 03:23:44;;;;;;;5.30;3.65;;;;;;;;;;5009874;28;20381;-70
2022/11/01 03:26:13;;;;;;;5.75;3.65;;;;;;;;;;5020686;28;20040;-70
2022/11/01 03:28:41;;;;;;;5.10;3.45;;;;;;;;;;5023658;28;20092;-70
2022/11/01 03:31:11;;;;;;;6.45;3.88;;;;;;;;;;5014120;28;20037;-70
2022/11/01 03:33:44;;;;;;;5.82;3.47;;;;;;;;;;5036655;28;20251;-70
2022/11/01 03:36:13;;;;;;;5.25;4.20;;;;;;;;;;5008550;28;20025;-71
2022/11/01 03:38:42;;;;;;;6.93;4.40;;;;;;;;;;5017658;28;20045;-71
2022/11/01 03:41:11;;;;;;;7.45;4.72;;;;;;;;;;5016691;28;20066;-70
2022/11/01 03:43:37;;;;;;;6.15;4.32;;;;;;;;;;5011114;28;20184;-71
2022/11/01 03:46:04;;;;;;;8.80;4.75;;;;;;;;;;5019408;28;20052;-70
2022/11/01 03:48:30;;;;;;;9.15;5.13;;;;;;;;;;5019478;28;20037;-73
2022/11/01 03:50:56;;;;;;;8.60;5.20;;;;;;;;;;5017611;28;20026;-71
2022/11/01 03:53:23;;;;;;;5.82;4.68;;;;;;;;;;5018747;28;20203;-71
2022/11/01 03:55:49;;;;;;;7.93;5.03;;;;;;;;;;5016038;28;20083;-71
2022/11/01 03:58:15;;;;;;;6.57;4.68;;;;;;;;;;5016768;28;20307;-71
2022/11/01 04:00:42;;;;;;;8.02;4.85;;;;;;;;;;5019131;28;20033;-71
2022/11/01 04:03:09;;;;;;;8.02;4.75;;;;;;;;;;5018530;28;20030;-69
2022/11/01 04:05:36;;;;;;;6.25;3.97;;;;;;;;;;5019685;28;20507;-72
2022/11/01 04:08:03;;;;;;;5.28;3.75;;;;;;;;;;5022648;28;20436;-69
2022/11/01 04:10:29;;;;;;;4.43;3.53;;;;;;;;;;5019943;28;20028;-69
2022/11/01 04:12:56;;;;;;;5.85;3.95;;;;;;;;;;5018001;28;20116;-69
2022/11/01 04:21:05;;;;;;;5.28;3.60;;;;;;;;;;5010015;28;20390;-70
2022/11/01 04:23:32;;;;;;;5.93;4.03;;;;;;;;;;5015070;28;20531;-69
2022/11/01 04:25:58;;;;;;;5.28;3.60;;;;;;;;;;5026226;28;20109;-69
2022/11/01 04:28:24;;;;;;;6.50;3.92;;;;;;;;;;5018340;28;20037;-69
2022/11/01 04:30:50;;;;;;;5.80;3.60;;;;;;;;;;5013054;28;20735;-69
2022/11/01 04:33:16;;;;;;;5.38;3.45;;;;;;;;;;5010564;28;20147;-71
2022/11/01 04:35:43;;;;;;;4.38;3.15;;;;;;;;;;5011516;28;20030;-70
2022/11/01 04:38:10;;;;;;;5.75;3.60;;;;;;;;;;5036055;28;20287;-72
2022/11/01 04:40:36;;;;;;;4.20;3.40;;;;;;;;;;5012303;28;20239;-71
2022/11/01 04:43:03;;;;;;;5.70;3.20;;;;;;;;;;5010112;28;20482;-69
2022/11/01 04:45:29;;;;;;;6.25;3.47;;;;;;;;;;5012887;28;20040;-69
2022/11/01 04:48:01;;;;;;;6.70;3.67;;;;;;;;;;5012516;28;20068;-68
2022/11/01 04:50:27;;;;;;;5.65;3.47;;;;;;;;;;5016772;28;20029;-69
2022/11/01 04:52:54;;;;;;;5.35;3.75;;;;;;;;;;5016792;28;20029;-71
2022/11/01 04:55:20;;;;;;;5.43;3.35;;;;;;;;;;5019275;28;20094;-69
2022/11/01 04:57:46;;;;;;;5.45;2.90;;;;;;;;;;5019853;28;20037;-69
2022/11/01 05:00:13;;;;;;;5.55;3.45;;;;;;;;;;5016220;28;20021;-69
2022/11/01 05:02:39;;;;;;;5.93;3.40;;;;;;;;;;5020984;28;20074;-69
2022/11/01 05:05:07;;;;;;;4.32;3.30;;;;;;;;;;5020634;28;20088;-69
2022/11/01 05:07:33;;;;;;;7.82;3.90;;;;;;;;;;5009503;28;20029;-69
2022/11/01 05:09:59;;;;;;;4.38;3.33;;;;;;;;;;5017510;28;20041;-69
2022/11/01 05:12:25;;;;;;;4.95;3.35;;;;;;;;;;5021109;28;20025;-69
2022/11/01 05:14:51;;;;;;;7.38;3.08;;;;;;;;;;5019948;28;20048;-69
2022/11/01 05:17:18;;;;;;;4.38;2.90;;;;;;;;;;5014222;28;20457;-69
2022/11/01 05:19:44;;;;;;;5.28;3.08;;;;;;;;;;5019853;28;20021;-69
2022/11/01 05:22:10;;;;;;;3.40;2.53;;;;;;;;;;5016942;28;20193;-69
2022/11/01 05:24:36;;;;;;;7.28;2.25;;;;;;;;;;5018993;28;20037;-68
2022/11/01 05:27:03;;;;;;;7.38;2.80;;;;;;;;;;5014877;28;20013;-68
2022/11/01 05:29:29;;;;;;;3.53;2.38;;;;;;;;;;5017543;28;20037;-68
2022/11/01 05:31:55;;;;;;;4.88;2.15;;;;;;;;;;5016811;28;20034;-69
2022/11/01 05:34:21;;;;;;;4.05;2.97;;;;;;;;;;5019390;28;20036;-68
2022/11/01 05:36:48;;;;;;;4.80;2.78;;;;;;;;;;5019121;28;20068;-69
2022/11/01 05:39:14;;;;;;;4.07;2.47;;;;;;;;;;5017407;28;20037;-69
2022/11/01 05:41:40;;;;;;;3.88;2.30;;;;;;;;;;5021047;28;20025;-70
2022/11/01 05:44:06;;;;;;;5.93;2.33;;;;;;;;;;5019813;28;20037;-69
2022/11/01 05:46:33;;;;;;;3.08;2.40;;;;;;;;;;5018798;28;20209;-69
2022/11/01 05:48:59;;;;;;;4.78;3.00;;;;;;;;;;5017478;28;20052;-69
2022/11/01 05:51:25;;;;;;;4.70;2.60;;;;;;;;;;5017444;28;20482;-70
2022/11/01 05:53:51;;;;;;;5.47;3.38;;;;;;;;;;5018698;28;20029;-69
2022/11/01 05:56:18;;;;;;;6.40;4.10;;;;;;;;;;5021915;28;20037;-68
2022/11/01 05:58:46;;;;;;;4.32;3.38;;;;;;;;;;5020279;28;20217;-68
2022/11/01 06:01:12;;;;;;;4.97;3.25;;;;;;;;;;5011517;28;20089;-71
2022/11/01 06:03:38;;;;;;;3.67;3.38;;;;;;;;;;5021041;28;20029;-71
2022/11/01 06:06:04;;;;;;;5.95;3.60;;;;;;;;;;5017502;28;20032;-70
2022/11/01 06:08:30;;;;;;;6.15;3.70;;;;;;;;;;5020308;28;20436;-71
2022/11/01 06:11:04;;;;;;;5.55;4.53;;;;;;;;;;5018265;28;20013;-70
2022/11/01 06:13:31;;;;;;;5.55;3.65;;;;;;;;;;5018435;28;20113;-70
2022/11/01 06:16:01;;;;;;;7.25;3.83;;;;;;;;;;5014312;28;20486;-70
2022/11/01 06:18:27;;;;;;;6.47;4.28;;;;;;;;;;5016793;28;20028;-70
2022/11/01 06:20:53;;;;;;;5.53;3.70;;;;;;;;;;5013478;28;20029;-68
2022/11/01 06:23:20;;;;;;;4.60;3.25;;;;;;;;;;5022627;28;20252;-71
2022/11/01 06:25:46;;;;;;;4.45;3.70;;;;;;;;;;5018786;28;20408;-69
2022/11/01 06:28:12;;;;;;;5.15;3.65;;;;;;;;;;5017023;28;20049;-68
2022/11/01 06:30:38;;;;;;;8.43;3.50;;;;;;;;;;5011444;28;20104;-69
2022/11/01 06:33:08;;;;;;;3.88;3.20;;;;;;;;;;5020215;28;20025;-68
2022/11/01 06:35:34;;;;;;;6.22;3.50;;;;;;;;;;5018105;28;20065;-69
2022/11/01 06:38:05;;;;;;;3.95;3.30;;;;;;;;;;5014221;28;20057;-69
2022/11/01 06:40:32;;;;;;;3.90;3.37;;;;;;;;;;5016234;28;20021;-69
2022/11/01 06:42:59;;;;;;;4.47;3.20;;;;;;;;;;5017736;28;20072;-69
2022/11/01 06:45:25;;;;;;;4.53;3.35;;;;;;;;;;5017003;28;20417;-71
2022/11/01 06:47:52;;;;;;;4.63;3.58;;;;;;;;;;5013608;28;20300;-72
2022/11/01 06:50:18;;;;;;;4.38;3.25;;;;;;;;;;5013033;28;20025;-69
2022/11/01 06:52:44;;;;;;;3.45;2.92;;;;;;;;;;5019194;28;20021;-69
2022/11/01 06:55:10;;;;;;;4.75;3.13;;;;;;;;;;5013203;28;20106;-69
2022/11/01 06:57:36;;;;;;;4.28;3.25;;;;;;;;;;5016858;28;20141;-69
2022/11/01 07:00:03;;;;;;;6.43;3.30;;;;;;;;;;5014332;28;20513;-69
2022/11/01 07:02:30;;;;;;;6.05;3.30;;;;;;;;;;5017328;28;20220;-71
2022/11/01 07:04:56;;;;;;;7.18;3.10;;;;;;;;;;5010322;28;20053;-71
2022/11/01 07:07:22;;;;;;;4.40;3.30;;;;;;;;;;5039009;28;20032;-71
2022/11/01 07:09:48;;;;;;;8.23;3.40;;;;;;;;;;5020055;28;20639;-71
2022/11/01 07:12:14;;;;;;;6.35;3.47;;;;;;;;;;5017406;28;20088;-72
2022/11/01 07:14:40;;;;;;;6.53;3.50;;;;;;;;;;5021478;28;20346;-72
2022/11/01 07:17:06;;;;;;;6.10;3.20;;;;;;;;;;5012624;28;20428;-72
2022/11/01 07:19:32;;;;;;;4.93;3.72;;;;;;;;;;5010491;28;20034;-71
2022/11/01 07:21:59;;;;;;;4.45;3.42;;;;;;;;;;5018262;28;20017;-71
2022/11/01 07:24:25;;;;;;;5.28;3.58;;;;;;;;;;5013412;28;20045;-72
2022/11/01 07:26:51;;;;;;;8.25;4.45;;;;;;;;;;5017619;28;20416;-73
2022/11/01 07:29:19;;;;;;;6.82;4.18;;;;;;;;;;5014612;28;20030;-71
2022/11/01 07:31:46;;;;;;;8.85;4.70;;;;;;;;;;5028722;28;20025;-71
2022/11/01 07:34:12;;;;;;;7.55;5.00;;;;;;;;;;5051855;28;20021;-71
2022/11/01 07:36:38;;;;;;;9.07;4.68;;;;;;;;;;5010719;28;20052;-70
2022/11/01 07:39:04;;;;;;;7.78;4.82;;;;;;;;;;5017020;28;20029;-74
2022/11/01 07:41:31;;;;;;;6.25;4.93;;;;;;;;;;5009454;28;20125;-70
2022/11/01 07:43:57;;;;;;;7.28;4.60;;;;;;;;;;5017565;28;20035;-70
2022/11/01 07:46:23;;;;;;;8.05;5.50;;;;;;;;;;5009339;28;20502;-71
2022/11/01 07:48:50;;;;;;;6.82;5.10;;;;;;;;;;5014972;28;20028;-70
2022/11/01 07:51:16;;;;;;;8.95;5.30;;;;;;;;;;5009679;28;20285;-70
2022/11/01 07:53:43;;;;;;;9.07;5.60;;;;;;;;;;5008985;28;20026;-70
2022/11/01 07:56:09;;;;;;;10.40;5.97;;;;;;;;;;5015240;28;20029;-70
2022/11/01 07:58:35;;;;;;;11.23;5.85;;;;;;;;;;5009627;28;20244;-72
2022/11/01 08:01:02;;;;;;;7.78;6.22;;;;;;;;;;5015281;28;20025;-72
2022/11/01 08:03:29;;;;;;;6.30;5.70;;;;;;;;;;5013730;28;20022;-71
2022/11/01 08:05:55;;;;;;;7.35;5.72;;;;;;;;;;5008412;28;20025;-71
2022/11/01 08:08:22;;;;;;;10.93;5.93;;;;;;;;;;5009341;28;20177;-71
2022/11/01 08:10:48;;;;;;;7.63;5.63;;;;;;;;;;5012213;28;20141;-73
2022/11/01 08:13:19;;;;;;;9.75;6.18;;;;;;;;;;5012177;28;20393;-72
2022/11/01 08:15:45;;;;;;;8.50;6.43;;;;;;;;;;5008370;28;20580;-72
2022/11/01 08:18:11;;;;;;;13.25;7.53;;;;;;;;;;5019858;28;20060;-72
2022/11/01 08:20:39;;;;;;;7.60;6.07;;;;;;;;;;5014749;28;20695;-72
2022/11/01 08:23:05;;;;;;;11.10;6.35;;;;;;;;;;5011768;28;20026;-72
2022/11/01 08:25:32;;;;;;;10.13;6.35;;;;;;;;;;5015417;28;20112;-71
2022/11/01 08:28:17;;;;;;;10.20;6.05;;;;;;;;;;5018489;28;20079;-72
2022/11/01 08:30:46;;;;;;;11.68;6.55;;;;;;;;;;5013211;28;20030;-72
2022/11/01 08:33:12;;;;;;;8.73;6.38;;;;;;;;;;5007901;28;20022;-73
2022/11/01 08:35:39;;;;;;;10.32;6.30;;;;;;;;;;5013741;28;20090;-71
2022/11/01 08:38:05;;;;;;;6.32;5.72;;;;;;;;;;5019566;28;20110;-71
2022/11/01 08:40:32;;;;;;;8.93;5.85;;;;;;;;;;5011420;28;20126;-72
2022/11/01 08:42:58;;;;;;;6.95;5.10;;;;;;;;;;5015730;28;20057;-72
2022/11/01 08:45:24;;;;;;;7.82;6.03;;;;;;;;;;5013527;28;20046;-72
2022/11/01 08:47:57;;;;;;;8.27;6.38;;;;;;;;;;5015775;28;21275;-72
2022/11/01 08:50:23;;;;;;;8.98;6.88;;;;;;;;;;5014786;28;20045;-72
2022/11/01 08:52:49;;;;;;;7.45;5.78;;;;;;;;;;5015286;28;20429;-72
2022/11/01 08:55:15;;;;;;;9.38;6.85;;;;;;;;;;5019975;28;20788;-72
2022/11/01 08:57:41;;;;;;;10.63;7.85;;;;;;;;;;5015663;28;20029;-72
2022/11/01 09:00:11;;;;;;;10.15;7.95;;;;;;;;;;5014373;28;20030;-74
2022/11/01 09:02:37;;;;;;;9.50;7.60;;;;;;;;;;5016740;28;20640;-73
2022/11/01 09:05:04;;;;;;;10.25;6.90;;;;;;;;;;5015737;28;20120;-72
2022/11/01 09:07:30;;;;;;;10.27;7.57;;;;;;;;;;5017758;28;20836;-72
2022/11/01 09:09:56;;;;;;;9.63;6.97;;;;;;;;;;5013696;28;20126;-72
2022/11/01 09:12:22;;;;;;;10.25;6.72;;;;;;;;;;5015768;28;20061;-71
2022/11/01 09:14:48;;;;;;;10.30;6.57;;;;;;;;;;5017492;28;20033;-72
2022/11/01 09:17:15;;;;;;;9.30;6.80;;;;;;;;;;5018742;28;20018;-72
2022/11/01 09:19:41;;;;;;;11.00;6.88;;;;;;;;;;5018683;28;20037;-74
2022/11/01 09:22:07;;;;;;;9.93;6.30;;;;;;;;;;5018612;28;20120;-72
2022/11/01 09:24:34;;;;;;;8.23;6.53;;;;;;;;;;5016024;28;20112;-72
2022/11/01 09:27:00;;;;;;;8.13;6.43;;;;;;;;;;5031935;28;20025;-72
2022/11/01 09:29:27;;;;;;;8.57;5.90;;;;;;;;;;5020581;28;20105;-73
2022/11/01 09:31:53;;;;;;;10.90;6.07;;;;;;;;;;5019914;28;20045;-73
2022/11/01 09:34:20;;;;;;;8.80;6.15;;;;;;;;;;5022028;28;20512;-72
2022/11/01 09:36:47;;;;;;;9.23;6.10;;;;;;;;;;5018526;28;20528;-73
2022/11/01 09:39:16;;;;;;;7.90;5.88;;;;;;;;;;5014157;28;20029;-73
2022/11/01 09:41:46;;;;;;;9.18;5.45;;;;;;;;;;5014897;28;20074;-73
2022/11/01 09:44:21;;;;;;;9.93;6.15;;;;;;;;;;5023299;28;20040;-75
2022/11/01 09:47:04;;;;;;;8.63;5.97;;;;;;;;;;5015406;28;20021;-78
2022/11/01 09:49:33;;;;;;;7.18;5.82;;;;;;;;;;5018839;28;20108;-76
2022/11/01 09:51:59;;;;;;;6.40;5.72;;;;;;;;;;5018708;28;20520;-77
2022/11/01 09:54:27;;;;;;;9.25;6.05;;;;;;;;;;5021745;28;20117;-76
2022/11/01 09:57:16;;;;;;;10.82;5.85;;;;;;;;;;5018420;28;20068;-79
2022/11/01 09:59:51;;;;;;;6.85;5.10;;;;;;;;;;5015576;28;20104;-79
2022/11/01 10:02:36;;;;;;;8.18;6.35;;;;;;;;;;5022315;28;20040;-74
2022/11/01 10:05:11;;;;;;;9.07;6.60;;;;;;;;;;5014760;28;20133;-78
2022/11/01 10:07:44;;;;;;;9.93;5.85;;;;;;;;;;5020585;28;20029;-74
2022/11/01 10:10:16;;;;;;;10.40;6.38;;;;;;;;;;5020119;28;20039;-79
2022/11/01 10:12:54;;;;;;;6.53;5.57;;;;;;;;;;5008742;28;20045;-78
2022/11/01 10:15:20;;;;;;;6.93;5.63;;;;;;;;;;5015787;28;20033;-76
2022/11/01 10:17:54;;;;;;;8.45;6.47;;;;;;;;;;5022213;28;20111;-76
2022/11/01 10:20:24;;;;;;;6.53;5.85;;;;;;;;;;5016287;28;20140;-79
2022/11/01 10:22:50;;;;;;;8.02;5.65;;;;;;;;;;5020537;28;20033;-74
2022/11/01 10:25:19;;;;;;;11.23;6.18;;;;;;;;;;5018214;28;20547;-78
2022/11/01 10:28:01;;;;;;;11.52;6.30;;;;;;;;;;5015465;28;20021;-78
2022/11/01 10:30:30;;;;;;;6.57;5.88;;;;;;;;;;5019242;28;20380;-75
2022/11/01 10:33:00;;;;;;;8.70;6.30;;;;;;;;;;5018380;28;20073;-78
2022/11/01 10:35:26;;;;;;;8.68;5.70;;;;;;;;;;5020863;28;20022;-74
2022/11/01 10:38:02;;;;;;;8.63;5.75;;;;;;;;;;5016261;28;20050;-78
2022/11/01 10:40:49;;;;;;;8.50;6.63;;;;;;;;;;5016942;28;20025;-77
2022/11/01 10:43:18;;;;;;;10.95;7.25;;;;;;;;;;5023141;28;20045;-74
2022/11/01 10:45:45;;;;;;;8.38;6.65;;;;;;;;;;5018062;28;20484;-75
2022/11/01 10:48:16;;;;;;;9.70;6.70;;;;;;;;;;5016573;28;20022;-76
2022/11/01 10:50:43;;;;;;;10.70;7.00;;;;;;;;;;5019855;28;20022;-78
2022/11/01 10:53:11;;;;;;;9.88;6.70;;;;;;;;;;5018204;28;20025;-72
2022/11/01 10:55:37;;;;;;;10.32;6.00;;;;;;;;;;5018922;28;20025;-77
2022/11/01 10:58:11;;;;;;;12.77;6.50;;;;;;;;;;5017091;28;20053;-77
2022/11/01 11:00:39;;;;;;;11.23;6.63;;;;;;;;;;5016681;28;20108;-81
2022/11/01 11:03:25;;;;;;;9.45;6.60;;;;;;;;;;5008725;28;20034;-73
2022/11/01 11:05:52;;;;;;;8.23;6.22;;;;;;;;;;5010606;28;20103;-74
2022/11/01 11:08:20;;;;;;;9.57;6.70;;;;;;;;;;5015390;28;20704;-74
2022/11/01 11:10:46;;;;;;;9.75;7.05;;;;;;;;;;5014114;28;20331;-77
2022/11/01 11:13:14;;;;;;;10.57;6.70;;;;;;;;;;5015090;28;20081;-76
2022/11/01 11:15:47;;;;;;;8.35;7.25;;;;;;;;;;5014690;28;20555;-76
2022/11/01 11:18:22;;;;;;;9.45;6.82;;;;;;;;;;5010462;28;20107;-73
2022/11/01 11:21:07;;;;;;;8.40;6.65;;;;;;;;;;5009244;28;21492;-76
2022/11/01 11:23:35;;;;;;;8.77;6.95;;;;;;;;;;5014408;28;20428;-75
2022/11/01 11:26:05;;;;;;;9.82;7.40;;;;;;;;;;5011464;28;20032;-74
2022/11/01 11:28:32;;;;;;;11.57;6.95;;;;;;;;;;5013312;28;20037;-74
2022/11/01 11:31:12;;;;;;;10.95;7.20;;;;;;;;;;5010415;28;20032;-77
2022/11/01 11:33:39;;;;;;;8.90;6.43;;;;;;;;;;5017043;28;20025;-79
2022/11/01 11:36:06;;;;;;;8.60;6.50;;;;;;;;;;5017206;28;20022;-79
2022/11/01 11:38:43;;;;;;;11.70;6.82;;;;;;;;;;5018819;28;20099;-82
2022/11/01 11:41:10;;;;;;;11.27;6.63;;;;;;;;;;5013111;28;20049;-83
2022/11/01 11:43:40;;;;;;;9.07;7.18;;;;;;;;;;5012036;28;20106;-81
2022/11/01 11:46:22;;;;;;;12.27;7.13;;;;;;;;;;5013215;28;20041;-77
2022/11/01 11:49:05;;;;;;;12.70;6.88;;;;;;;;;;5019755;28;20028;-76
2022/11/01 11:51:36;;;;;;;8.45;6.68;;;;;;;;;;5015151;28;20025;-83
2022/11/01 11:54:06;;;;;;;9.37;6.70;;;;;;;;;;5021196;28;20138;-75
2022/11/01 11:56:32;;;;;;;7.93;6.57;;;;;;;;;;5012041;28;20036;-83
2022/11/01 11:59:01;;;;;;;8.65;6.80;;;;;;;;;;5015798;28;20038;-80
2022/11/01 12:01:30;;;;;;;9.75;7.10;;;;;;;;;;5009256;28;20105;-72
2022/11/01 12:04:05;;;;;;;9.32;7.18;;;;;;;;;;5012624;28;20077;-80
2022/11/01 12:06:37;;;;;;;10.30;7.47;;;;;;;;;;5006393;28;20688;-81
2022/11/01 12:09:03;;;;;;;;;;;;;;;;;;5014618;28;20367;-73
2022/11/01 12:11:45;;;;;;;8.70;6.78;;;;;;;;;;5006415;28;19964;-74
2022/11/01 12:14:19;;;;;;;13.00;7.28;;;;;;;;;;5013700;28;20367;-72
2022/11/01 12:16:45;;;;;;;9.57;8.20;;;;;;;;;;5010578;28;20120;-73
2022/11/01 12:19:26;;;;;;;12.13;7.63;;;;;;;;;;5007351;28;20068;-73
2022/11/01 12:21:53;;;;;;;10.10;6.45;;;;;;;;;;5003131;28;20018;-72
2022/11/01 12:24:22;;;;;;;9.65;6.82;;;;;;;;;;5007549;28;20719;-71
2022/11/01 12:26:50;;;;;;;7.38;5.88;;;;;;;;;;5012754;28;20474;-73
2022/11/01 12:29:32;;;;;;;9.18;6.53;;;;;;;;;;5008971;28;20030;-71
2022/11/01 12:32:02;;;;;;;8.98;6.55;;;;;;;;;;5036319;28;20042;-71
2022/11/01 12:34:31;;;;;;;11.02;7.07;;;;;;;;;;5015590;28;20026;-70
2022/11/01 12:37:04;;;;;;;8.95;7.40;;;;;;;;;;5009917;28;20053;-71
2022/11/01 12:39:40;;;;;;;9.48;6.93;;;;;;;;;;5009709;28;20523;-71
2022/11/01 12:42:08;;;;;;;8.93;7.15;;;;;;;;;;5017127;28;20527;-71
2022/11/01 12:44:36;;;;;;;7.47;6.70;;;;;;;;;;5016984;28;20037;-71
2022/11/01 12:47:14;;;;;;;9.25;7.15;;;;;;;;;;5016555;28;20627;-71
2022/11/01 12:49:40;;;;;;;8.20;6.50;;;;;;;;;;5015751;28;20033;-72
2022/11/01 12:52:10;;;;;;;9.38;6.40;;;;;;;;;;5012601;28;20763;-72
2022/11/01 12:54:43;;;;;;;8.50;6.75;;;;;;;;;;5011794;28;20074;-72
2022/11/01 12:57:14;;;;;;;10.80;7.22;;;;;;;;;;5012840;28;20069;-76
2022/11/01 12:59:42;;;;;;;7.82;7.03;;;;;;;;;;5011605;28;20026;-71
2022/11/01 13:02:27;;;;;;;9.50;6.40;;;;;;;;;;5015679;28;20469;-71
2022/11/01 13:05:10;;;;;;;9.25;6.80;;;;;;;;;;5015954;28;20564;-72
2022/11/01 13:07:42;;;;;;;9.48;7.40;;;;;;;;;;5022080;28;20033;-74
2022/11/01 13:10:27;;;;;;;7.55;6.70;;;;;;;;;;5017846;28;20113;-72
2022/11/01 13:12:53;;;;;;;11.85;6.93;;;;;;;;;;5016461;28;20033;-72
2022/11/01 13:15:31;;;;;;;7.25;6.50;;;;;;;;;;5021218;28;20107;-75
2022/11/01 13:18:02;;;;;;;8.73;7.25;;;;;;;;;;5018566;28;20072;-70
2022/11/01 13:20:33;;;;;;;10.63;7.78;;;;;;;;;;5016186;28;20545;-79
2022/11/01 13:22:59;;;;;;;7.95;6.75;;;;;;;;;;5013101;28;20087;-71
2022/11/01 13:25:44;;;;;;;7.72;6.70;;;;;;;;;;5018183;28;20045;-71
2022/11/01 13:28:21;;;;;;;8.18;6.72;;;;;;;;;;5013570;28;20025;-71
2022/11/01 13:30:56;;;;;;;9.00;6.85;;;;;;;;;;5011278;28;20026;-71
2022/11/01 13:33:32;;;;;;;9.80;6.93;;;;;;;;;;5019916;28;20018;-73
2022/11/01 13:36:06;;;;;;;10.65;6.97;;;;;;;;;;5014356;28;20113;-73
2022/11/01 13:38:58;;;;;;;8.40;7.18;;;;;;;;;;5012573;28;20033;-72
2022/11/01 13:41:27;;;;;;;9.02;7.40;;;;;;;;;;5001845;28;20048;-72
2022/11/01 13:43:58;;;;;;;11.05;7.40;;;;;;;;;;5017287;28;20078;-72
2022/11/01 13:46:24;;;;;;;10.53;6.40;;;;;;;;;;5009798;28;20069;-72
2022/11/01 13:48:53;;;;;;;9.80;7.05;;;;;;;;;;5014443;28;20080;-71
2022/11/01 13:51:32;;;;;;;9.73;7.38;;;;;;;;;;5012428;28;20099;-71
2022/11/01 13:54:04;;;;;;;9.70;6.72;;;;;;;;;;5014815;28;20022;-73
2022/11/01 13:56:40;;;;;;;8.98;6.80;;;;;;;;;;5014605;28;20072;-71
2022/11/01 13:59:13;;;;;;;10.05;6.22;;;;;;;;;;5011992;28;20029;-72
2022/11/01 14:01:40;;;;;;;8.73;6.38;;;;;;;;;;5019891;28;20130;-72
2022/11/01 14:04:18;;;;;;;9.75;7.20;;;;;;;;;;5010704;28;20036;-71
2022/11/01 14:07:04;;;;;;;8.77;6.30;;;;;;;;;;5015465;28;20036;-75
2022/11/01 14:09:31;;;;;;;10.45;6.97;;;;;;;;;;5014751;28;20132;-72
2022/11/01 14:12:10;;;;;;;8.75;7.50;;;;;;;;;;5010160;28;20033;-71
2022/11/01 14:14:39;;;;;;;10.13;7.35;;;;;;;;;;5013298;28;21390;-71
2022/11/01 14:17:25;;;;;;;8.98;6.93;;;;;;;;;;5014891;28;20410;-71
2022/11/01 14:19:54;;;;;;;9.73;7.43;;;;;;;;;;5016236;28;20021;-72
2022/11/01 14:22:23;;;;;;;11.27;7.45;;;;;;;;;;5016478;28;20669;-72
2022/11/01 14:25:00;;;;;;;7.90;6.85;;;;;;;;;;5017378;28;20067;-72
2022/11/01 14:27:34;;;;;;;10.40;7.25;;;;;;;;;;5014623;28;20022;-72
2022/11/01 14:30:01;;;;;;;14.27;7.75;;;;;;;;;;5012606;28;20091;-71
2022/11/01 14:32:31;;;;;;;10.32;7.70;;;;;;;;;;5020966;28;20912;-71
2022/11/01 14:35:00;;;;;;;11.43;8.00;;;;;;;;;;5018262;28;20036;-71
2022/11/01 14:37:28;;;;;;;10.88;7.60;;;;;;;;;;5011556;28;20053;-71
2022/11/01 14:39:59;;;;;;;9.77;8.02;;;;;;;;;;5018681;28;20707;-71
2022/11/01 14:42:29;;;;;;;9.52;7.68;;;;;;;;;;5014376;28;20301;-72
2022/11/01 14:44:58;;;;;;;11.23;7.78;;;;;;;;;;5017051;28;20746;-72
2022/11/01 14:47:35;;;;;;;11.18;7.38;;;;;;;;;;5013424;28;20029;-72
2022/11/01 14:50:05;;;;;;;11.43;7.80;;;;;;;;;;5018969;28;20535;-72
2022/11/01 14:52:38;;;;;;;12.30;8.40;;;;;;;;;;5017643;28;20033;-72
2022/11/01 14:55:11;;;;;;;8.93;8.02;;;;;;;;;;5009589;28;20102;-71
2022/11/01 14:57:37;;;;;;;10.88;8.02;;;;;;;;;;5011031;28;20571;-72
2022/11/01 15:00:22;;;;;;;10.50;7.82;;;;;;;;;;5017373;28;20061;-72